TimeCDT,TemperatureF,Dew PointF,Humidity,Sea Level PressureIn,VisibilityMPH,Wind Direction,Wind SpeedMPH,Gust SpeedMPH,PrecipitationIn,Events,Conditions,WindDirDegrees,DateUTC
12:15 AM,47.3,47.3,100,29.70,0.5,South,5.8,-,N/A,Fog,Fog,180,2013-10-31 05:15:00
12:35 AM,47.3,47.3,100,29.69,0.5,Calm,Calm,-,N/A,Fog,Fog,0,2013-10-31 05:35:00
12:55 AM,47.3,47.3,100,29.68,0.5,Calm,Calm,-,N/A,Fog,Fog,0,2013-10-31 05:55:00
1:15 AM,47.3,47.3,100,29.68,0.5,Calm,Calm,-,N/A,Fog,Fog,0,2013-10-31 06:15:00
1:35 AM,47.5,47.5,100,29.66,0.2,Calm,Calm,-,N/A,Rain,Light Rain,0,2013-10-31 06:35:00
1:55 AM,47.3,47.3,100,29.65,0.2,Calm,Calm,-,N/A,,Light Drizzle,0,2013-10-31 06:55:00
2:15 AM,47.3,47.3,100,29.64,0.2,Calm,Calm,-,N/A,Fog,Fog,0,2013-10-31 07:15:00
2:35 AM,47.5,47.5,100,29.64,0.5,Calm,Calm,-,N/A,Fog,Fog,0,2013-10-31 07:35:00
2:55 AM,47.7,47.7,100,29.62,0.5,South,3.5,-,N/A,Fog,Fog,170,2013-10-31 07:55:00
3:15 AM,47.7,47.7,100,29.61,0.5,Calm,Calm,-,N/A,Fog,Fog,0,2013-10-31 08:15:00
3:35 AM,47.8,47.8,100,29.59,0.2,Calm,Calm,-,N/A,Fog,Fog,0,2013-10-31 08:35:00
3:55 AM,47.3,47.3,100,29.58,0.2,Calm,Calm,-,N/A,Fog,Fog,0,2013-10-31 08:55:00
4:15 AM,47.3,47.3,100,29.58,0.2,Calm,Calm,-,N/A,Fog,Fog,0,2013-10-31 09:15:00
4:35 AM,47.3,47.3,100,29.58,0.2,Calm,Calm,-,N/A,Fog,Fog,0,2013-10-31 09:35:00
4:55 AM,47.3,47.3,100,29.57,0.2,SSE,3.5,-,N/A,Fog,Fog,160,2013-10-31 09:55:00
5:15 AM,47.7,47.7,100,29.56,0.2,Calm,Calm,-,N/A,Fog,Fog,0,2013-10-31 10:15:00
5:35 AM,47.5,47.5,100,29.56,0.2,Calm,Calm,-,N/A,Fog,Fog,0,2013-10-31 10:35:00
5:55 AM,47.5,47.5,100,29.55,0.5,Calm,Calm,-,N/A,Fog,Fog,0,2013-10-31 10:55:00
6:15 AM,47.7,47.7,100,29.54,0.5,Calm,Calm,-,N/A,Fog,Fog,0,2013-10-31 11:15:00
6:35 AM,47.5,47.5,100,29.54,0.5,Calm,Calm,-,N/A,Rain,Light Rain,0,2013-10-31 11:35:00
6:55 AM,47.3,47.3,100,29.53,0.5,Calm,Calm,-,N/A,Fog,Fog,0,2013-10-31 11:55:00
7:15 AM,47.7,47.7,100,29.53,2.0,Calm,Calm,-,0.04,Rain,Rain,0,2013-10-31 12:15:00
7:35 AM,47.8,47.8,100,29.53,3.0,Calm,Calm,-,0.06,Rain,Rain,0,2013-10-31 12:35:00
7:55 AM,47.7,47.7,100,29.51,1.8,Calm,Calm,-,0.10,Rain,Light Rain,0,2013-10-31 12:55:00
8:15 AM,47.8,47.8,100,29.51,1.0,Calm,Calm,-,N/A,,Light Drizzle,0,2013-10-31 13:15:00
8:35 AM,48.2,48.2,100,29.50,1.0,Calm,Calm,-,N/A,,Light Drizzle,0,2013-10-31 13:35:00
8:55 AM,48.2,48.2,100,29.50,1.8,Calm,Calm,-,N/A,,Overcast,0,2013-10-31 13:55:00
9:15 AM,48.2,48.2,100,29.49,1.5,ENE,3.5,-,N/A,,Overcast,70,2013-10-31 14:15:00
9:35 AM,48.4,48.4,100,29.48,1.0,NE,3.5,-,N/A,,Overcast,50,2013-10-31 14:35:00
9:55 AM,48.6,48.6,100,29.47,0.8,NNE,3.5,-,N/A,Rain,Rain,30,2013-10-31 14:55:00
10:15 AM,48.7,48.7,100,29.47,0.8,Calm,Calm,-,N/A,,Heavy Drizzle,0,2013-10-31 15:15:00
10:35 AM,49.3,49.3,100,29.45,1.0,Calm,Calm,-,0.01,,Drizzle,0,2013-10-31 15:35:00
10:55 AM,49.3,49.3,100,29.44,1.2,Calm,Calm,-,0.01,,Heavy Drizzle,0,2013-10-31 15:55:00
11:15 AM,49.5,49.5,100,29.44,1.8,Calm,Calm,-,N/A,,Drizzle,0,2013-10-31 16:15:00
11:35 AM,49.6,49.6,100,29.43,1.8,Calm,Calm,-,0.01,Rain,Heavy Rain,0,2013-10-31 16:35:00
11:55 AM,50.0,50.0,100,29.41,2.5,NNE,3.5,-,0.01,,Drizzle,30,2013-10-31 16:55:00
12:15 PM,50.2,50.2,100,29.40,3.0,Calm,Calm,-,N/A,,Drizzle,0,2013-10-31 17:15:00
12:35 PM,50.4,50.4,100,29.39,4.0,Calm,Calm,-,N/A,,Light Drizzle,0,2013-10-31 17:35:00
12:55 PM,51.1,51.1,100,29.37,7.0,Calm,Calm,-,N/A,,Overcast,0,2013-10-31 17:55:00
1:15 PM,50.9,50.9,100,29.36,10.0,Calm,Calm,-,N/A,,Overcast,0,2013-10-31 18:15:00
1:35 PM,50.9,50.9,100,29.35,10.0,Calm,Calm,-,N/A,,Overcast,0,2013-10-31 18:35:00
1:55 PM,51.1,51.1,100,29.33,10.0,Calm,Calm,-,N/A,,Overcast,0,2013-10-31 18:55:00
2:15 PM,51.1,51.1,100,29.31,10.0,Calm,Calm,-,N/A,,Overcast,0,2013-10-31 19:15:00
2:35 PM,50.9,50.9,100,29.31,10.0,Calm,Calm,-,N/A,,Overcast,0,2013-10-31 19:35:00
2:55 PM,51.1,51.1,100,29.30,10.0,Calm,Calm,-,N/A,,Overcast,0,2013-10-31 19:55:00
3:15 PM,51.3,51.3,100,29.29,10.0,Calm,Calm,-,N/A,,Overcast,0,2013-10-31 20:15:00
3:35 PM,51.3,51.3,100,29.28,7.0,Calm,Calm,-,N/A,,Overcast,0,2013-10-31 20:35:00
3:55 PM,51.4,51.4,100,29.28,3.0,Calm,Calm,-,N/A,,Overcast,0,2013-10-31 20:55:00
4:15 PM,51.3,51.3,100,29.26,3.0,Calm,Calm,-,N/A,Rain,Light Rain,0,2013-10-31 21:15:00
4:35 PM,51.3,51.3,100,29.26,3.0,NNW,3.5,-,N/A,,Drizzle,340,2013-10-31 21:35:00
4:55 PM,51.1,51.1,100,29.27,3.0,Calm,Calm,-,N/A,,Drizzle,0,2013-10-31 21:55:00
5:15 PM,50.9,50.9,100,29.26,2.0,NNW,5.8,-,N/A,,Heavy Drizzle,340,2013-10-31 22:15:00
5:35 PM,50.5,50.5,100,29.26,2.5,NNW,3.5,-,0.01,,Drizzle,330,2013-10-31 22:35:00
5:55 PM,50.4,50.4,100,29.26,3.0,NW,3.5,-,0.01,Rain,Heavy Rain,320,2013-10-31 22:55:00
6:15 PM,50.2,50.2,100,29.24,5.0,Calm,Calm,-,N/A,,Light Drizzle,0,2013-10-31 23:15:00
6:35 PM,50.0,50.0,100,29.24,7.0,Calm,Calm,-,N/A,Rain,Light Rain,0,2013-10-31 23:35:00
6:55 PM,50.0,50.0,100,29.24,7.0,NNW,5.8,-,N/A,,Overcast,330,2013-10-31 23:55:00
7:15 PM,49.5,49.5,100,29.23,7.0,North,8.1,-,N/A,,Overcast,350,2013-11-01 00:15:00
7:35 PM,48.7,48.7,100,29.22,7.0,North,9.2,16.1,N/A,,Overcast,350,2013-11-01 00:35:00
7:55 PM,47.8,47.8,100,29.22,10.0,North,6.9,-,N/A,,Overcast,350,2013-11-01 00:55:00
8:15 PM,47.3,47.3,100,29.22,10.0,NNW,6.9,-,N/A,,Overcast,340,2013-11-01 01:15:00
8:35 PM,46.8,46.8,100,29.21,10.0,NNW,6.9,-,N/A,,Overcast,340,2013-11-01 01:35:00
8:55 PM,46.4,46.4,100,29.21,10.0,NNW,8.1,-,N/A,,Overcast,340,2013-11-01 01:55:00
9:15 PM,46.0,46.0,100,29.21,10.0,NNW,8.1,-,N/A,,Overcast,340,2013-11-01 02:15:00
9:35 PM,45.9,45.9,100,29.21,10.0,North,6.9,-,N/A,,Overcast,350,2013-11-01 02:35:00
9:55 PM,45.7,45.7,100,29.20,10.0,NNW,6.9,-,N/A,,Overcast,340,2013-11-01 02:55:00
10:15 PM,45.5,45.5,100,29.20,7.0,NNW,10.4,-,N/A,,Overcast,340,2013-11-01 03:15:00
10:35 PM,45.5,45.5,100,29.20,10.0,North,9.2,-,N/A,,Overcast,350,2013-11-01 03:35:00
10:55 PM,44.6,44.6,100,29.20,7.0,North,8.1,-,N/A,,Overcast,350,2013-11-01 03:55:00
11:15 PM,43.9,43.9,100,29.20,10.0,NNW,11.5,17.3,0.01,Rain,Light Rain,340,2013-11-01 04:15:00
11:35 PM,43.3,43.2,99,29.21,10.0,North,12.7,17.3,0.02,Rain,Light Rain,350,2013-11-01 04:35:00
11:55 PM,43.0,42.8,99,29.20,10.0,NNW,8.1,-,0.02,,Light Drizzle,340,2013-11-01 04:55:00